createdAt,value
2018-12-08T00:00:41.452Z,0
2018-12-08T00:01:41.426Z,0
2018-12-08T00:02:41.401Z,0
2018-12-08T00:03:41.650Z,0
2018-12-08T00:04:41.623Z,0
2018-12-08T00:05:41.603Z,0
2018-12-08T00:06:41.832Z,0
2018-12-08T00:07:41.306Z,0
2018-12-08T00:08:41.284Z,0
2018-12-08T00:09:41.789Z,0
2018-12-08T00:10:41.033Z,0
2018-12-08T00:11:42.444Z,0
2018-12-08T00:12:41.521Z,0
2018-12-08T00:13:41.443Z,0
2018-12-08T00:14:41.411Z,0
2018-12-08T00:15:41.173Z,0
2018-12-08T00:16:41.405Z,0
2018-12-08T00:17:41.360Z,0
2018-12-08T00:18:41.596Z,0
2018-12-08T00:19:41.330Z,0
2018-12-08T00:20:41.315Z,0
2018-12-08T00:21:40.766Z,0
2018-12-08T00:22:41.251Z,0
2018-12-08T00:23:41.234Z,0
2018-12-08T00:24:40.953Z,0
2018-12-08T00:25:41.444Z,0
2018-12-08T00:26:41.166Z,0
2018-12-08T00:27:41.464Z,0
2018-12-08T00:28:41.446Z,0
2018-12-08T00:29:41.110Z,0
2018-12-08T00:30:41.207Z,0
2018-12-08T00:31:41.179Z,0
2018-12-08T00:32:40.528Z,0
2018-12-08T00:33:41.029Z,0
2018-12-08T00:34:41.033Z,0
2018-12-08T00:35:41.019Z,0
2018-12-08T00:36:40.966Z,0
2018-12-08T00:37:41.283Z,0
2018-12-08T00:38:41.192Z,0
2018-12-08T00:39:40.982Z,0
2018-12-08T00:40:40.661Z,0
2018-12-08T00:41:40.618Z,0
2018-12-08T00:42:41.105Z,0
2018-12-08T00:43:40.565Z,0
2018-12-08T00:44:40.548Z,0
2018-12-08T00:45:41.035Z,0
2018-12-08T00:46:40.505Z,0
2018-12-08T00:47:40.489Z,0
2018-12-08T00:48:40.781Z,0
2018-12-08T00:49:40.441Z,0
2018-12-08T00:50:40.437Z,0
2018-12-08T00:51:40.932Z,0
2018-12-08T00:52:40.474Z,0
2018-12-08T00:53:40.459Z,0
2018-12-08T00:54:40.602Z,0
2018-12-08T00:55:40.844Z,0
2018-12-08T00:56:40.060Z,0
2018-12-08T00:57:40.298Z,0
2018-12-08T00:58:40.839Z,0
2018-12-08T00:59:40.508Z,0
2018-12-08T01:00:40.260Z,0
2018-12-08T01:01:40.224Z,0
2018-12-08T01:02:40.188Z,0
2018-12-08T01:03:40.724Z,0
2018-12-08T01:04:40.397Z,0
2018-12-08T01:05:40.667Z,0
2018-12-08T01:06:40.353Z,0
2018-12-08T01:07:40.589Z,0
2018-12-08T01:08:40.332Z,0
2018-12-08T01:09:40.293Z,0
2018-12-08T01:10:40.281Z,0
2018-12-08T01:11:40.255Z,0
2018-12-08T01:12:39.994Z,0
2018-12-08T01:13:40.537Z,0
2018-12-08T01:14:40.195Z,0
2018-12-08T01:15:39.922Z,0
2018-12-08T01:16:40.164Z,0
2018-12-08T01:17:40.134Z,0
2018-12-08T01:18:39.869Z,0
2018-12-08T01:19:39.836Z,0
2018-12-08T01:20:40.327Z,0
2018-12-08T01:21:40.301Z,0
2018-12-08T01:22:40.031Z,0
2018-12-08T01:23:40.010Z,0
2018-12-08T01:24:39.987Z,0
2018-12-08T01:25:39.969Z,0
2018-12-08T01:26:39.733Z,0
2018-12-08T01:27:40.978Z,0
2018-12-08T01:28:40.012Z,0
2018-12-08T01:29:40.209Z,0
2018-12-08T01:30:40.594Z,0
2018-12-08T01:31:39.888Z,0
2018-12-08T01:32:39.834Z,0
2018-12-08T01:33:40.068Z,0
2018-12-08T01:34:40.055Z,0
2018-12-08T01:35:40.029Z,0
2018-12-08T01:36:39.759Z,0
2018-12-08T01:37:39.476Z,0
2018-12-08T01:38:39.738Z,0
2018-12-08T01:39:39.694Z,0
2018-12-08T01:40:39.928Z,0
2018-12-08T01:41:40.702Z,0
2018-12-08T01:42:39.378Z,0
2018-12-08T01:43:39.603Z,0
2018-12-08T01:44:39.327Z,0
2018-12-08T01:45:39.337Z,0
2018-12-08T01:46:39.562Z,0
2018-12-08T01:47:39.546Z,0
2018-12-08T01:48:39.246Z,0
2018-12-08T01:49:39.738Z,0
2018-12-08T01:50:39.719Z,0
2018-12-08T01:51:39.463Z,0
2018-12-08T01:52:39.428Z,0
2018-12-08T01:53:39.653Z,0
2018-12-08T01:54:39.699Z,0
2018-12-08T01:55:39.176Z,0
2018-12-08T01:56:39.356Z,0
2018-12-08T01:57:39.317Z,0
2018-12-08T01:58:39.552Z,0
2018-12-08T01:59:39.285Z,0
2018-12-08T02:00:39.514Z,0
2018-12-08T02:01:39.491Z,0
2018-12-08T02:02:39.216Z,0
2018-12-08T02:03:39.227Z,0
2018-12-08T02:04:39.179Z,0
2018-12-08T02:05:38.898Z,0
2018-12-08T02:06:38.917Z,0
2018-12-08T02:07:39.405Z,0
2018-12-08T02:08:39.108Z,0
2018-12-08T02:09:38.976Z,0
2018-12-08T02:10:38.816Z,0
2018-12-08T02:11:38.559Z,0
2018-12-08T02:12:39.268Z,0
2018-12-08T02:13:39.246Z,0
2018-12-08T02:14:38.980Z,0
2018-12-08T02:15:39.204Z,0
2018-12-08T02:16:38.981Z,0
2018-12-08T02:17:38.917Z,0
2018-12-08T02:18:38.661Z,0
2018-12-08T02:19:38.632Z,0
2018-12-08T02:20:39.111Z,0
2018-12-08T02:21:38.827Z,0
2018-12-08T02:22:38.590Z,0
2018-12-08T02:23:38.790Z,0
2018-12-08T02:24:39.051Z,0
2018-12-08T02:25:38.765Z,0
2018-12-08T02:26:38.997Z,0
2018-12-08T02:27:38.716Z,0
2018-12-08T02:28:38.439Z,0
2018-12-08T02:29:38.418Z,0
2018-12-08T02:30:38.677Z,0
2018-12-08T02:31:38.902Z,0
2018-12-08T02:32:38.913Z,0
2018-12-08T02:33:38.613Z,0
2018-12-08T02:34:38.321Z,0
2018-12-08T02:35:38.822Z,0
2018-12-08T02:36:38.282Z,0
2018-12-08T02:37:38.267Z,0
2018-12-08T02:38:38.517Z,0
2018-12-08T02:39:38.477Z,0
2018-12-08T02:40:38.189Z,0
2018-12-08T02:41:38.725Z,0
2018-12-08T02:42:38.437Z,0
2018-12-08T02:43:38.398Z,0
2018-12-08T02:44:38.136Z,0
2018-12-08T02:45:38.358Z,0
2018-12-08T02:46:38.393Z,0
2018-12-08T02:47:38.573Z,0
2018-12-08T02:48:38.043Z,0
2018-12-08T02:49:38.019Z,0
2018-12-08T02:50:38.250Z,0
2018-12-08T02:51:38.488Z,0
2018-12-08T02:52:38.203Z,0
2018-12-08T02:53:38.194Z,0
2018-12-08T02:54:37.918Z,0
2018-12-08T02:55:37.658Z,0
2018-12-08T02:56:38.396Z,0
2018-12-08T02:57:38.137Z,0
2018-12-08T02:58:38.107Z,0
2018-12-08T02:59:38.076Z,0
2018-12-08T03:00:38.045Z,0
2018-12-08T03:01:38.047Z,0
2018-12-08T03:02:38.005Z,0
2018-12-08T03:03:38.059Z,0
2018-12-08T03:04:37.975Z,0
2018-12-08T03:05:37.702Z,0
2018-12-08T03:06:37.929Z,0
2018-12-08T03:07:37.917Z,0
2018-12-08T03:08:37.621Z,0
2018-12-08T03:09:37.864Z,0
2018-12-08T03:10:38.104Z,0
2018-12-08T03:11:38.090Z,0
2018-12-08T03:12:37.807Z,0
2018-12-08T03:13:37.532Z,0
2018-12-08T03:14:37.507Z,0
2018-12-08T03:15:37.485Z,0
2018-12-08T03:16:37.483Z,0
2018-12-08T03:17:37.700Z,0
2018-12-08T03:18:37.428Z,0
2018-12-08T03:19:37.913Z,0
2018-12-08T03:20:37.914Z,0
2018-12-08T03:21:37.619Z,0
2018-12-08T03:22:37.863Z,0
2018-12-08T03:23:37.651Z,0
2018-12-08T03:24:37.821Z,0
2018-12-08T03:25:37.552Z,0
2018-12-08T03:26:37.530Z,0
2018-12-08T03:27:37.761Z,0
2018-12-08T03:28:36.970Z,0
2018-12-08T03:29:37.718Z,0
2018-12-08T03:30:37.848Z,0
2018-12-08T03:31:37.172Z,0
2018-12-08T03:32:37.722Z,0
2018-12-08T03:33:37.136Z,0
2018-12-08T03:34:37.104Z,0
2018-12-08T03:35:37.340Z,0
2018-12-08T03:36:37.062Z,0
2018-12-08T03:37:37.603Z,0
2018-12-08T03:38:37.556Z,0
2018-12-08T03:39:37.269Z,0
2018-12-08T03:40:37.501Z,0
2018-12-08T03:41:37.211Z,0
2018-12-08T03:42:37.462Z,0
2018-12-08T03:43:36.666Z,0
2018-12-08T03:44:36.961Z,0
2018-12-08T03:45:37.393Z,0
2018-12-08T03:46:37.384Z,0
2018-12-08T03:47:36.867Z,0
2018-12-08T03:48:37.334Z,0
2018-12-08T03:49:37.072Z,0
2018-12-08T03:50:37.046Z,0
2018-12-08T03:51:37.021Z,0
2018-12-08T03:52:37.004Z,0
2018-12-08T03:53:36.972Z,0
2018-12-08T03:54:36.952Z,0
2018-12-08T03:55:37.201Z,0
2018-12-08T03:56:36.721Z,0
2018-12-08T03:57:36.902Z,0
2018-12-08T03:58:37.129Z,0
2018-12-08T03:59:37.132Z,0
2018-12-08T04:00:36.846Z,0
2018-12-08T04:01:36.999Z,0
2018-12-08T04:02:36.804Z,0
2018-12-08T04:03:36.526Z,0
2018-12-08T04:04:36.764Z,0
2018-12-08T04:05:36.730Z,0
2018-12-08T04:06:36.485Z,0
2018-12-08T04:07:36.724Z,0
2018-12-08T04:08:36.698Z,0
2018-12-08T04:09:36.944Z,0
2018-12-08T04:10:36.398Z,0
2018-12-08T04:11:37.128Z,0
2018-12-08T04:12:36.628Z,0
2018-12-08T04:13:36.587Z,0
2018-12-08T04:14:36.576Z,0
2018-12-08T04:15:36.527Z,0
2018-12-08T04:16:36.525Z,0
2018-12-08T04:17:36.273Z,0
2018-12-08T04:18:36.232Z,0
2018-12-08T04:19:36.228Z,0
2018-12-08T04:20:36.446Z,0
2018-12-08T04:21:36.168Z,0
2018-12-08T04:22:36.432Z,0
2018-12-08T04:23:36.638Z,0
2018-12-08T04:24:36.352Z,0
2018-12-08T04:25:36.592Z,0
2018-12-08T04:26:36.579Z,0
2018-12-08T04:27:36.561Z,0
2018-12-08T04:28:35.787Z,0
2018-12-08T04:29:36.263Z,0
2018-12-08T04:30:35.977Z,0
2018-12-08T04:31:36.207Z,0
2018-12-08T04:32:35.948Z,0
2018-12-08T04:33:36.189Z,0
2018-12-08T04:34:36.416Z,0
2018-12-08T04:35:36.399Z,0
2018-12-08T04:36:36.119Z,0
2018-12-08T04:37:36.382Z,0
2018-12-08T04:38:35.821Z,0
2018-12-08T04:39:36.308Z,0
2018-12-08T04:40:36.038Z,0
2018-12-08T04:41:35.564Z,0
2018-12-08T04:42:36.083Z,0
2018-12-08T04:43:36.218Z,0
2018-12-08T04:44:36.210Z,0
2018-12-08T04:45:35.938Z,0
2018-12-08T04:46:36.174Z,0
2018-12-08T04:47:37.827Z,0
2018-12-08T04:48:35.960Z,0
2018-12-08T04:49:35.853Z,0
2018-12-08T04:50:35.632Z,0
2018-12-08T04:51:35.815Z,0
2018-12-08T04:52:35.798Z,0
2018-12-08T04:53:36.129Z,0
2018-12-08T04:54:35.502Z,0
2018-12-08T04:55:35.735Z,0
2018-12-08T04:56:35.206Z,0
2018-12-08T04:57:35.430Z,0
2018-12-08T04:58:35.407Z,0
2018-12-08T04:59:35.654Z,0
2018-12-08T05:00:35.375Z,0
2018-12-08T05:01:35.361Z,0
2018-12-08T05:02:35.340Z,0
2018-12-08T05:03:35.572Z,0
2018-12-08T05:04:35.796Z,0
2018-12-08T05:05:35.544Z,0
2018-12-08T05:06:34.995Z,0
2018-12-08T05:07:35.738Z,0
2018-12-08T05:08:35.483Z,0
2018-12-08T05:09:35.695Z,0
2018-12-08T05:10:35.680Z,0
2018-12-08T05:11:35.152Z,0
2018-12-08T05:12:35.385Z,0
2018-12-08T05:13:35.369Z,0
2018-12-08T05:14:35.120Z,0
2018-12-08T05:15:35.669Z,0
2018-12-08T05:16:35.643Z,0
2018-12-08T05:17:35.057Z,0
2018-12-08T05:18:35.020Z,0
2018-12-08T05:19:34.989Z,0
2018-12-08T05:20:35.220Z,0
2018-12-08T05:21:35.484Z,0
2018-12-08T05:22:35.182Z,0
2018-12-08T05:23:34.908Z,0
2018-12-08T05:24:35.399Z,0
2018-12-08T05:25:35.367Z,0
2018-12-08T05:26:35.094Z,0
2018-12-08T05:27:34.832Z,0
2018-12-08T05:28:34.898Z,0
2018-12-08T05:29:35.034Z,0
2018-12-08T05:30:35.273Z,0
2018-12-08T05:31:34.968Z,0
2018-12-08T05:32:35.008Z,0
2018-12-08T05:33:34.785Z,0
2018-12-08T05:34:34.957Z,0
2018-12-08T05:35:34.979Z,0
2018-12-08T05:36:34.942Z,0
2018-12-08T05:37:35.239Z,0
2018-12-08T05:38:34.599Z,0
2018-12-08T05:39:34.834Z,0
2018-12-08T05:40:34.568Z,0
2018-12-08T05:41:34.792Z,0
2018-12-08T05:42:34.519Z,0
2018-12-08T05:43:34.834Z,0
2018-12-08T05:44:34.487Z,0
2018-12-08T05:45:34.747Z,0
2018-12-08T05:46:34.699Z,0
2018-12-08T05:47:34.931Z,0
2018-12-08T05:48:34.652Z,0
2018-12-08T05:49:34.637Z,0
2018-12-08T05:50:34.866Z,0
2018-12-08T05:51:34.592Z,0
2018-12-08T05:52:34.763Z,0
2018-12-08T05:53:34.326Z,0
2018-12-08T05:54:34.280Z,0
2018-12-08T05:55:34.513Z,0
2018-12-08T05:56:34.497Z,0
2018-12-08T05:57:34.470Z,0
2018-12-08T05:58:34.552Z,0
2018-12-08T05:59:34.428Z,0
2018-12-08T06:00:34.662Z,0
2018-12-08T06:01:34.430Z,0
2018-12-08T06:02:34.370Z,0
2018-12-08T06:03:34.619Z,0
2018-12-08T06:04:34.331Z,0
2018-12-08T06:05:34.308Z,0
2018-12-08T06:06:34.298Z,0
2018-12-08T06:07:34.538Z,0
2018-12-08T06:08:34.258Z,0
2018-12-08T06:09:34.514Z,0
2018-12-08T06:10:34.223Z,0
2018-12-08T06:11:34.242Z,0
2018-12-08T06:12:34.438Z,0
2018-12-08T06:13:33.898Z,0
2018-12-08T06:14:34.135Z,0
2018-12-08T06:15:34.105Z,0
2018-12-08T06:16:34.096Z,0
2018-12-08T06:17:34.063Z,0
2018-12-08T06:18:34.058Z,0
2018-12-08T06:19:34.035Z,0
2018-12-08T06:20:34.003Z,0
2018-12-08T06:21:33.734Z,0
2018-12-08T06:22:33.713Z,0
2018-12-08T06:23:33.953Z,0
2018-12-08T06:24:33.982Z,0
2018-12-08T06:25:33.967Z,0
2018-12-08T06:26:33.917Z,0
2018-12-08T06:27:33.864Z,0
2018-12-08T06:28:34.101Z,0
2018-12-08T06:29:33.573Z,0
2018-12-08T06:30:33.808Z,0
2018-12-08T06:31:33.854Z,0
2018-12-08T06:32:33.777Z,0
2018-12-08T06:33:33.744Z,0
2018-12-08T06:34:33.979Z,0
2018-12-08T06:35:33.708Z,0
2018-12-08T06:36:33.688Z,0
2018-12-08T06:37:33.408Z,0
2018-12-08T06:38:33.649Z,0
2018-12-08T06:39:33.945Z,0
2018-12-08T06:40:35.842Z,0
2018-12-08T06:41:33.840Z,0
2018-12-08T06:42:33.615Z,0
2018-12-08T06:43:33.809Z,0
2018-12-08T06:44:33.887Z,0
2018-12-08T06:45:33.252Z,0
2018-12-08T06:46:33.490Z,0
2018-12-08T06:47:33.738Z,0
2018-12-08T06:48:33.688Z,0
2018-12-08T06:49:33.689Z,0
2018-12-08T06:50:33.396Z,0
2018-12-08T06:51:33.490Z,0
2018-12-08T06:52:33.417Z,0
2018-12-08T06:53:33.398Z,0
2018-12-08T06:54:33.720Z,0
2018-12-08T06:55:33.549Z,4
2018-12-08T06:56:33.041Z,4
2018-12-08T06:57:33.307Z,4
2018-12-08T06:58:32.988Z,4
2018-12-08T06:59:33.278Z,0
2018-12-08T07:00:32.944Z,4
2018-12-08T07:01:33.476Z,4
2018-12-08T07:02:33.408Z,8
2018-12-08T07:03:33.392Z,12
2018-12-08T07:04:33.155Z,16
2018-12-08T07:05:32.850Z,20
2018-12-08T07:06:33.390Z,24
2018-12-08T07:07:33.303Z,28
2018-12-08T07:08:32.807Z,20
2018-12-08T07:09:32.768Z,16
2018-12-08T07:10:32.745Z,20
2018-12-08T07:11:33.219Z,28
2018-12-08T07:12:32.996Z,44
2018-12-08T07:13:32.691Z,44
2018-12-08T07:14:32.964Z,40
2018-12-08T07:15:33.146Z,28
2018-12-08T07:16:33.175Z,24
2018-12-08T07:17:32.842Z,20
2018-12-08T07:18:33.379Z,24
2018-12-08T07:19:33.078Z,24
2018-12-08T07:20:32.547Z,32
2018-12-08T07:21:33.031Z,32
2018-12-08T07:22:32.739Z,32
2018-12-08T07:23:33.096Z,32
2018-12-08T07:24:32.703Z,40
2018-12-08T07:25:32.695Z,36
2018-12-08T07:26:32.681Z,36
2018-12-08T07:27:32.765Z,36
2018-12-08T07:28:32.399Z,28
2018-12-08T07:29:32.358Z,32
2018-12-08T07:30:32.910Z,32
2018-12-08T07:31:32.865Z,40
2018-12-08T07:32:38.770Z,48
2018-12-08T07:33:32.527Z,84
2018-12-08T07:34:32.770Z,72
2018-12-08T07:35:32.739Z,88
2018-12-08T07:36:32.480Z,108
2018-12-08T07:37:32.711Z,136
2018-12-08T07:38:32.169Z,132
2018-12-08T07:39:32.458Z,132
2018-12-08T07:40:32.122Z,120
2018-12-08T07:41:32.364Z,108
2018-12-08T07:42:32.348Z,116
2018-12-08T07:43:32.320Z,140
2018-12-08T07:44:32.090Z,120
2018-12-08T07:45:32.074Z,148
2018-12-08T07:46:32.258Z,156
2018-12-08T07:47:32.238Z,148
2018-12-08T07:48:32.235Z,184
2018-12-08T07:49:31.949Z,216
2018-12-08T07:50:31.921Z,200
2018-12-08T07:51:31.899Z,152
2018-12-08T07:52:32.167Z,136
2018-12-08T07:53:31.610Z,156
2018-12-08T07:54:31.848Z,176
2018-12-08T07:55:32.074Z,196
2018-12-08T07:56:31.797Z,192
2018-12-08T07:57:32.047Z,200
2018-12-08T07:58:32.280Z,312
2018-12-08T07:59:31.990Z,272
2018-12-08T08:00:32.229Z,312
2018-12-08T08:01:32.210Z,408
2018-12-08T08:02:31.684Z,416
2018-12-08T08:03:31.907Z,364
2018-12-08T08:04:31.891Z,364
2018-12-08T08:05:31.645Z,520
2018-12-08T08:06:31.354Z,520
2018-12-08T08:07:31.589Z,412
2018-12-08T08:08:31.618Z,408
2018-12-08T08:09:31.537Z,244
2018-12-08T08:10:31.769Z,228
2018-12-08T08:11:32.021Z,336
2018-12-08T08:12:31.727Z,400
2018-12-08T08:13:31.490Z,328
2018-12-08T08:14:31.939Z,348
2018-12-08T08:15:31.412Z,376
2018-12-08T08:16:31.637Z,372
2018-12-08T08:17:31.622Z,396
2018-12-08T08:18:31.348Z,332
2018-12-08T08:19:31.364Z,316
2018-12-08T08:20:31.563Z,260
2018-12-08T08:21:31.299Z,292
2018-12-08T08:22:31.265Z,336
2018-12-08T08:23:31.761Z,404
2018-12-08T08:24:31.485Z,328
2018-12-08T08:25:31.912Z,272
2018-12-08T08:26:31.440Z,300
2018-12-08T08:27:31.459Z,172
2018-12-08T08:28:31.148Z,160
2018-12-08T08:29:31.126Z,152
2018-12-08T08:30:31.104Z,248
2018-12-08T08:31:31.602Z,280
2018-12-08T08:32:31.629Z,340
2018-12-08T08:33:31.044Z,408
2018-12-08T08:34:31.635Z,404
2018-12-08T08:35:31.066Z,428
2018-12-08T08:36:31.492Z,432
2018-12-08T08:37:31.474Z,516
2018-12-08T08:38:31.199Z,696
2018-12-08T08:39:30.923Z,660
2018-12-08T08:40:30.914Z,532
2018-12-08T08:41:30.884Z,648
2018-12-08T08:42:30.632Z,532
2018-12-08T08:43:31.343Z,524
2018-12-08T08:44:31.106Z,580
2018-12-08T08:45:31.353Z,540
2018-12-08T08:46:30.572Z,620
2018-12-08T08:47:31.007Z,740
2018-12-08T08:48:31.009Z,1064
2018-12-08T08:49:31.216Z,792
2018-12-08T08:50:30.734Z,992
2018-12-08T08:51:30.684Z,604
2018-12-08T08:52:30.913Z,516
2018-12-08T08:53:30.647Z,512
2018-12-08T08:54:30.361Z,704
2018-12-08T08:55:31.197Z,512
2018-12-08T08:56:30.319Z,556
2018-12-08T08:57:30.560Z,592
2018-12-08T08:58:30.583Z,404
2018-12-08T08:59:31.032Z,704
2018-12-08T09:00:31.001Z,684
2018-12-08T09:01:30.979Z,528
2018-12-08T09:02:30.705Z,340
2018-12-08T09:03:30.719Z,396
2018-12-08T09:04:30.668Z,236
2018-12-08T09:05:30.680Z,232
2018-12-08T09:06:30.632Z,268
2018-12-08T09:07:30.360Z,380
2018-12-08T09:08:30.830Z,552
2018-12-08T09:09:30.318Z,744
2018-12-08T09:10:30.560Z,800
2018-12-08T09:11:30.305Z,752
2018-12-08T09:12:30.272Z,1172
2018-12-08T09:13:30.502Z,952
2018-12-08T09:14:30.473Z,916
2018-12-08T09:15:30.711Z,1008
2018-12-08T09:16:30.427Z,1404
2018-12-08T09:17:30.648Z,1524
2018-12-08T09:18:29.871Z,1684
2018-12-08T09:19:30.356Z,1904
2018-12-08T09:20:30.087Z,1628
2018-12-08T09:21:30.330Z,1380
2018-12-08T09:22:30.307Z,1636
2018-12-08T09:23:30.545Z,2188
2018-12-08T09:24:30.285Z,1680
2018-12-08T09:25:29.991Z,1560
2018-12-08T09:26:29.965Z,1376
2018-12-08T09:27:30.202Z,1220
2018-12-08T09:28:29.927Z,1220
2018-12-08T09:29:30.169Z,1252
2018-12-08T09:30:30.174Z,1164
2018-12-08T09:31:30.106Z,1204
2018-12-08T09:32:30.092Z,1096
2018-12-08T09:33:29.563Z,1412
2018-12-08T09:34:30.062Z,1472
2018-12-08T09:35:30.309Z,1328
2018-12-08T09:36:30.311Z,1092
2018-12-08T09:37:29.737Z,1200
2018-12-08T09:38:30.234Z,1204
2018-12-08T09:39:29.954Z,856
2018-12-08T09:40:29.966Z,920
2018-12-08T09:41:29.676Z,972
2018-12-08T09:42:29.650Z,968
2018-12-08T09:43:29.629Z,1004
2018-12-08T09:44:29.599Z,964
2018-12-08T09:45:30.085Z,592
2018-12-08T09:46:30.065Z,628
2018-12-08T09:47:30.058Z,820
2018-12-08T09:48:29.775Z,888
2018-12-08T09:49:29.758Z,740
2018-12-08T09:50:29.984Z,672
2018-12-08T09:51:29.713Z,444
2018-12-08T09:52:29.693Z,312
2018-12-08T09:53:30.019Z,248
2018-12-08T09:54:29.651Z,280
2018-12-08T09:55:29.631Z,340
2018-12-08T09:56:29.611Z,428
2018-12-08T09:57:29.599Z,468
2018-12-08T09:58:29.374Z,676
2018-12-08T09:59:29.805Z,736
2018-12-08T10:00:29.271Z,864
2018-12-08T10:01:29.513Z,1040
2018-12-08T10:02:29.688Z,808
2018-12-08T10:03:29.055Z,860
2018-12-08T10:04:29.449Z,740
2018-12-08T10:05:29.679Z,796
2018-12-08T10:06:29.412Z,896
2018-12-08T10:07:29.403Z,796
2018-12-08T10:08:29.630Z,964
2018-12-08T10:09:29.353Z,876
2018-12-08T10:10:29.587Z,1048
2018-12-08T10:11:29.302Z,868
2018-12-08T10:12:29.036Z,744
2018-12-08T10:13:29.607Z,732
2018-12-08T10:14:28.994Z,808
2018-12-08T10:15:28.978Z,784
2018-12-08T10:16:28.698Z,736
2018-12-08T10:17:28.933Z,756
2018-12-08T10:18:28.911Z,764
2018-12-08T10:19:29.400Z,936
2018-12-08T10:20:28.901Z,1256
2018-12-08T10:21:29.398Z,1580
2018-12-08T10:22:30.192Z,1476
2018-12-08T10:23:28.549Z,1324
2018-12-08T10:24:29.349Z,1332
2018-12-08T10:25:28.522Z,1168
2018-12-08T10:26:28.551Z,1372
2018-12-08T10:27:28.733Z,1132
2018-12-08T10:28:28.971Z,1156
2018-12-08T10:29:29.204Z,1176
2018-12-08T10:30:28.925Z,1240
2018-12-08T10:31:29.192Z,1272
2018-12-08T10:32:29.156Z,1172
2018-12-08T10:33:30.434Z,816
2018-12-08T10:34:28.592Z,696
2018-12-08T10:35:29.094Z,844
2018-12-08T10:36:28.552Z,948
2018-12-08T10:37:28.779Z,1300
2018-12-08T10:38:29.020Z,1340
2018-12-08T10:39:28.746Z,1728
2018-12-08T10:40:28.737Z,1804
2018-12-08T10:41:28.765Z,1764
2018-12-08T10:42:28.630Z,1456
2018-12-08T10:43:28.661Z,1740
2018-12-08T10:44:28.944Z,1632
2018-12-08T10:45:28.373Z,1192
2018-12-08T10:46:28.357Z,1168
2018-12-08T10:47:28.841Z,1244
2018-12-08T10:48:28.563Z,2280
2018-12-08T10:49:28.351Z,1492
2018-12-08T10:50:28.778Z,1680
2018-12-08T10:51:28.497Z,1524
2018-12-08T10:52:28.497Z,1040
2018-12-08T10:53:28.717Z,1460
2018-12-08T10:54:29.473Z,1112
2018-12-08T10:55:28.684Z,1212
2018-12-08T10:56:28.655Z,1000
2018-12-08T10:57:28.372Z,1320
2018-12-08T10:58:28.126Z,1732
2018-12-08T10:59:28.341Z,1372
2018-12-08T11:00:28.194Z,1660
2018-12-08T11:01:28.301Z,1792
2018-12-08T11:02:28.760Z,1980
2018-12-08T11:03:28.613Z,1480
2018-12-08T11:04:27.996Z,1172
2018-12-08T11:05:28.602Z,956
2018-12-08T11:06:28.453Z,960
2018-12-08T11:07:28.187Z,776
2018-12-08T11:08:27.903Z,1148
2018-12-08T11:09:28.143Z,1052
2018-12-08T11:10:28.371Z,1120
2018-12-08T11:11:28.095Z,1100
2018-12-08T11:12:27.825Z,944
2018-12-08T11:13:28.128Z,1144
2018-12-08T11:14:28.033Z,948
2018-12-08T11:15:28.269Z,644
2018-12-08T11:16:28.267Z,708
2018-12-08T11:17:27.975Z,792
2018-12-08T11:18:27.975Z,1108
2018-12-08T11:19:28.188Z,976
2018-12-08T11:20:27.662Z,1760
2018-12-08T11:21:27.901Z,2148
2018-12-08T11:22:27.887Z,2160
2018-12-08T11:23:27.855Z,1724
2018-12-08T11:24:27.594Z,1400
2018-12-08T11:25:28.074Z,1196
2018-12-08T11:26:27.550Z,1196
2018-12-08T11:27:27.785Z,1284
2018-12-08T11:28:27.511Z,2092
2018-12-08T11:29:27.741Z,2480
2018-12-08T11:30:28.010Z,2256
2018-12-08T11:31:27.445Z,1908
2018-12-08T11:32:27.691Z,1776
2018-12-08T11:33:27.919Z,1548
2018-12-08T11:34:27.635Z,1520
2018-12-08T11:35:27.867Z,1544
2018-12-08T11:36:27.345Z,1720
2018-12-08T11:37:27.066Z,1748
2018-12-08T11:38:27.308Z,2116
2018-12-08T11:39:27.545Z,1640
2018-12-08T11:40:27.275Z,1432
2018-12-08T11:41:27.245Z,1524
2018-12-08T11:42:27.032Z,1892
2018-12-08T11:43:28.199Z,2172
2018-12-08T11:44:27.201Z,3044
2018-12-08T11:45:27.466Z,4300
2018-12-08T11:46:27.139Z,3856
2018-12-08T11:47:27.383Z,3620
2018-12-08T11:48:27.112Z,3608
2018-12-08T11:49:27.618Z,2500
2018-12-08T11:50:27.335Z,3200
2018-12-08T11:51:27.315Z,5204
2018-12-08T11:52:27.287Z,4072
2018-12-08T11:53:27.011Z,6712
2018-12-08T11:54:27.518Z,8356
2018-12-08T11:55:34.626Z,10400
2018-12-08T11:56:27.232Z,9512
2018-12-08T11:57:27.257Z,8536
2018-12-08T11:58:26.966Z,5264
2018-12-08T11:59:27.147Z,6336
2018-12-08T12:00:27.141Z,11660
2018-12-08T12:01:26.857Z,7460
2018-12-08T12:02:27.095Z,6692
2018-12-08T12:03:27.220Z,5664
2018-12-08T12:04:26.793Z,4940
2018-12-08T12:05:26.532Z,4156
2018-12-08T12:06:27.273Z,5240
2018-12-08T12:07:26.776Z,4644
2018-12-08T12:08:26.975Z,4344
2018-12-08T12:09:26.698Z,4320
2018-12-08T12:10:26.948Z,4340
2018-12-08T12:11:26.920Z,4668
2018-12-08T12:12:26.910Z,4432
2018-12-08T12:13:27.132Z,4480
2018-12-08T12:14:27.123Z,4520
2018-12-08T12:15:26.594Z,4508
2018-12-08T12:16:26.829Z,4812
2018-12-08T12:17:26.298Z,4720
2018-12-08T12:18:27.042Z,4480
2018-12-08T12:19:26.767Z,3264
2018-12-08T12:20:26.503Z,4564
2018-12-08T12:21:26.734Z,4424
2018-12-08T12:22:26.711Z,6940
2018-12-08T12:23:26.949Z,11604
2018-12-08T12:24:26.682Z,9024
2018-12-08T12:25:26.146Z,6032
2018-12-08T12:26:26.632Z,4988
2018-12-08T12:27:26.619Z,6064
2018-12-08T12:28:26.456Z,7352
2018-12-08T12:29:26.364Z,12932
2018-12-08T12:30:26.321Z,5188
2018-12-08T12:31:26.816Z,3664
2018-12-08T12:32:26.777Z,4308
2018-12-08T12:33:26.278Z,6232
2018-12-08T12:34:26.487Z,6920
2018-12-08T12:35:26.729Z,11776
2018-12-08T12:36:26.209Z,2888
2018-12-08T12:37:26.571Z,3504
2018-12-08T12:38:26.501Z,4356
2018-12-08T12:39:26.144Z,4812
2018-12-08T12:40:26.389Z,7476
2018-12-08T12:41:26.361Z,9848
2018-12-08T12:42:26.138Z,5824
2018-12-08T12:43:26.083Z,3620
2018-12-08T12:44:26.571Z,3792
2018-12-08T12:45:26.553Z,3272
2018-12-08T12:46:26.281Z,4104
2018-12-08T12:47:26.520Z,3032
2018-12-08T12:48:25.982Z,2996
2018-12-08T12:49:25.973Z,3232
2018-12-08T12:50:26.190Z,2384
2018-12-08T12:51:26.435Z,1428
2018-12-08T12:52:25.653Z,1528
2018-12-08T12:53:26.174Z,1756
2018-12-08T12:54:26.140Z,1640
2018-12-08T12:55:26.104Z,1904
2018-12-08T12:56:25.835Z,2644
2018-12-08T12:57:26.066Z,3216
2018-12-08T12:58:26.044Z,1720
2018-12-08T12:59:25.780Z,1940
2018-12-08T13:00:26.038Z,2648
2018-12-08T13:01:26.060Z,2168
2018-12-08T13:02:25.972Z,2492
2018-12-08T13:03:25.707Z,2084
2018-12-08T13:04:25.991Z,2644
2018-12-08T13:05:25.676Z,4804
2018-12-08T13:06:26.152Z,4272
2018-12-08T13:07:25.880Z,2772
2018-12-08T13:08:26.113Z,1884
2018-12-08T13:09:25.983Z,2292
2018-12-08T13:10:25.621Z,1904
2018-12-08T13:11:26.096Z,1872
2018-12-08T13:12:25.829Z,1952
2018-12-08T13:13:26.037Z,1488
2018-12-08T13:14:25.855Z,1576
2018-12-08T13:15:25.984Z,1540
2018-12-08T13:16:25.713Z,1764
2018-12-08T13:17:25.445Z,1396
2018-12-08T13:18:25.418Z,1036
2018-12-08T13:19:25.902Z,1148
2018-12-08T13:20:25.887Z,948
2018-12-08T13:21:25.416Z,888
2018-12-08T13:22:25.868Z,888
2018-12-08T13:23:25.577Z,1028
2018-12-08T13:24:25.556Z,1004
2018-12-08T13:25:25.814Z,1200
2018-12-08T13:26:25.515Z,1320
2018-12-08T13:27:25.284Z,1392
2018-12-08T13:28:25.514Z,2228
2018-12-08T13:29:25.466Z,2180
2018-12-08T13:30:25.444Z,1804
2018-12-08T13:31:25.416Z,1720
2018-12-08T13:32:25.411Z,1304
2018-12-08T13:33:25.131Z,1380
2018-12-08T13:34:25.724Z,1976
2018-12-08T13:35:25.357Z,1972
2018-12-08T13:36:25.074Z,2172
2018-12-08T13:37:25.065Z,1640
2018-12-08T13:38:25.914Z,1148
2018-12-08T13:39:25.525Z,1388
2018-12-08T13:40:25.000Z,1452
2018-12-08T13:41:24.730Z,1436
2018-12-08T13:42:24.979Z,1216
2018-12-08T13:43:24.942Z,1080
2018-12-08T13:44:26.592Z,1464
2018-12-08T13:45:24.647Z,1676
2018-12-08T13:46:25.389Z,2064
2018-12-08T13:47:25.364Z,2412
2018-12-08T13:48:25.091Z,1484
2018-12-08T13:49:24.821Z,1016
2018-12-08T13:50:25.329Z,972
2018-12-08T13:51:25.290Z,1152
2018-12-08T13:52:24.760Z,1568
2018-12-08T13:53:24.491Z,1956
2018-12-08T13:54:24.748Z,2192
2018-12-08T13:55:25.223Z,2568
2018-12-08T13:56:24.680Z,2808
2018-12-08T13:57:24.678Z,2956
2018-12-08T13:58:24.395Z,2528
2018-12-08T13:59:24.646Z,1712
2018-12-08T14:00:24.356Z,1516
2018-12-08T14:01:24.358Z,1496
2018-12-08T14:02:24.852Z,1456
2018-12-08T14:03:25.068Z,1196
2018-12-08T14:04:24.950Z,880
2018-12-08T14:05:25.047Z,608
2018-12-08T14:06:24.760Z,504
2018-12-08T14:07:24.510Z,516
2018-12-08T14:08:24.965Z,576